sensor_id;sensor_type;location;lat;lon;timestamp;P1;durP1;ratioP1;P2;durP2;ratioP2
43664;SDS011;29263;48.172;11.484;2023-05-03T00:00:23;11.57;;;6.10;;
43664;SDS011;29263;48.172;11.484;2023-05-03T00:02:50;7.60;;;5.80;;
43664;SDS011;29263;48.172;11.484;2023-05-03T00:05:21;8.60;;;5.60;;
43664;SDS011;29263;48.172;11.484;2023-05-03T00:07:47;8.70;;;5.87;;
43664;SDS011;29263;48.172;11.484;2023-05-03T00:10:13;7.17;;;5.40;;
43664;SDS011;29263;48.172;11.484;2023-05-03T00:12:42;7.60;;;5.60;;
43664;SDS011;29263;48.172;11.484;2023-05-03T00:15:08;6.27;;;5.10;;
43664;SDS011;29263;48.172;11.484;2023-05-03T00:17:35;9.80;;;5.80;;
43664;SDS011;29263;48.172;11.484;2023-05-03T00:20:02;7.70;;;5.87;;
43664;SDS011;29263;48.172;11.484;2023-05-03T00:22:28;7.50;;;5.83;;
43664;SDS011;29263;48.172;11.484;2023-05-03T00:24:54;9.00;;;6.50;;
43664;SDS011;29263;48.172;11.484;2023-05-03T00:27:20;10.93;;;5.40;;
43664;SDS011;29263;48.172;11.484;2023-05-03T00:29:49;7.30;;;5.33;;
43664;SDS011;29263;48.172;11.484;2023-05-03T00:32:15;8.50;;;5.80;;
43664;SDS011;29263;48.172;11.484;2023-05-03T00:34:44;6.00;;;5.22;;
43664;SDS011;29263;48.172;11.484;2023-05-03T00:37:09;6.67;;;5.33;;
43664;SDS011;29263;48.172;11.484;2023-05-03T00:39:36;8.37;;;5.30;;
43664;SDS011;29263;48.172;11.484;2023-05-03T00:42:01;6.43;;;5.37;;
43664;SDS011;29263;48.172;11.484;2023-05-03T00:44:28;7.40;;;5.20;;
43664;SDS011;29263;48.172;11.484;2023-05-03T00:46:54;6.03;;;4.87;;
43664;SDS011;29263;48.172;11.484;2023-05-03T00:49:20;7.13;;;5.53;;
43664;SDS011;29263;48.172;11.484;2023-05-03T00:51:48;8.13;;;5.50;;
43664;SDS011;29263;48.172;11.484;2023-05-03T00:54:14;6.67;;;5.63;;
43664;SDS011;29263;48.172;11.484;2023-05-03T00:56:40;8.50;;;5.53;;
43664;SDS011;29263;48.172;11.484;2023-05-03T00:59:06;6.13;;;5.07;;
43664;SDS011;29263;48.172;11.484;2023-05-03T01:01:32;6.70;;;5.17;;
43664;SDS011;29263;48.172;11.484;2023-05-03T01:04:01;9.10;;;5.63;;
43664;SDS011;29263;48.172;11.484;2023-05-03T01:06:31;5.70;;;4.93;;
43664;SDS011;29263;48.172;11.484;2023-05-03T01:09:02;6.27;;;5.03;;
43664;SDS011;29263;48.172;11.484;2023-05-03T01:11:40;6.20;;;5.27;;
43664;SDS011;29263;48.172;11.484;2023-05-03T01:14:42;6.80;;;5.30;;
43664;SDS011;29263;48.172;11.484;2023-05-03T01:17:13;8.37;;;5.20;;
43664;SDS011;29263;48.172;11.484;2023-05-03T01:19:49;6.30;;;5.20;;
43664;SDS011;29263;48.172;11.484;2023-05-03T01:22:21;5.83;;;4.53;;
43664;SDS011;29263;48.172;11.484;2023-05-03T01:27:33;6.73;;;5.13;;
43664;SDS011;29263;48.172;11.484;2023-05-03T01:30:01;6.30;;;5.17;;
43664;SDS011;29263;48.172;11.484;2023-05-03T01:32:35;6.63;;;5.57;;
43664;SDS011;29263;48.172;11.484;2023-05-03T01:37:36;6.57;;;5.27;;
43664;SDS011;29263;48.172;11.484;2023-05-03T01:40:03;7.03;;;5.13;;
43664;SDS011;29263;48.172;11.484;2023-05-03T01:42:33;7.45;;;5.40;;
43664;SDS011;29263;48.172;11.484;2023-05-03T01:45:01;7.60;;;5.30;;
43664;SDS011;29263;48.172;11.484;2023-05-03T01:47:28;7.60;;;5.80;;
43664;SDS011;29263;48.172;11.484;2023-05-03T01:49:54;6.30;;;5.07;;
43664;SDS011;29263;48.172;11.484;2023-05-03T01:52:20;7.30;;;5.10;;
43664;SDS011;29263;48.172;11.484;2023-05-03T01:54:47;5.87;;;4.60;;
43664;SDS011;29263;48.172;11.484;2023-05-03T01:57:12;5.97;;;4.90;;
43664;SDS011;29263;48.172;11.484;2023-05-03T01:59:38;5.43;;;4.10;;
43664;SDS011;29263;48.172;11.484;2023-05-03T02:02:03;6.83;;;5.00;;
43664;SDS011;29263;48.172;11.484;2023-05-03T02:04:29;5.77;;;4.57;;
43664;SDS011;29263;48.172;11.484;2023-05-03T02:06:55;5.33;;;4.43;;
43664;SDS011;29263;48.172;11.484;2023-05-03T02:09:20;6.27;;;5.10;;
43664;SDS011;29263;48.172;11.484;2023-05-03T02:11:46;9.67;;;4.73;;
43664;SDS011;29263;48.172;11.484;2023-05-03T02:14:12;8.67;;;5.07;;
43664;SDS011;29263;48.172;11.484;2023-05-03T02:16:38;6.80;;;4.90;;
43664;SDS011;29263;48.172;11.484;2023-05-03T02:19:04;6.53;;;4.97;;
43664;SDS011;29263;48.172;11.484;2023-05-03T02:21:32;7.47;;;5.37;;
43664;SDS011;29263;48.172;11.484;2023-05-03T02:23:58;7.73;;;5.87;;
43664;SDS011;29263;48.172;11.484;2023-05-03T02:26:23;8.10;;;5.90;;
43664;SDS011;29263;48.172;11.484;2023-05-03T02:28:49;7.53;;;5.67;;
43664;SDS011;29263;48.172;11.484;2023-05-03T02:31:15;12.20;;;5.83;;
43664;SDS011;29263;48.172;11.484;2023-05-03T02:33:43;8.30;;;6.10;;
43664;SDS011;29263;48.172;11.484;2023-05-03T02:36:12;8.17;;;6.20;;
43664;SDS011;29263;48.172;11.484;2023-05-03T02:38:37;8.10;;;5.63;;
43664;SDS011;29263;48.172;11.484;2023-05-03T02:41:03;9.40;;;6.60;;
43664;SDS011;29263;48.172;11.484;2023-05-03T02:43:28;12.63;;;6.07;;
43664;SDS011;29263;48.172;11.484;2023-05-03T02:45:54;24.17;;;8.07;;
43664;SDS011;29263;48.172;11.484;2023-05-03T02:48:20;20.67;;;6.50;;
43664;SDS011;29263;48.172;11.484;2023-05-03T02:50:45;9.97;;;6.53;;
43664;SDS011;29263;48.172;11.484;2023-05-03T02:53:11;12.30;;;6.73;;
43664;SDS011;29263;48.172;11.484;2023-05-03T02:55:36;11.73;;;6.80;;
43664;SDS011;29263;48.172;11.484;2023-05-03T02:58:03;9.70;;;6.73;;
43664;SDS011;29263;48.172;11.484;2023-05-03T03:00:29;9.77;;;7.23;;
43664;SDS011;29263;48.172;11.484;2023-05-03T03:02:54;10.50;;;7.40;;
43664;SDS011;29263;48.172;11.484;2023-05-03T03:05:20;8.97;;;6.67;;
43664;SDS011;29263;48.172;11.484;2023-05-03T03:07:45;14.53;;;7.93;;
43664;SDS011;29263;48.172;11.484;2023-05-03T03:10:11;10.80;;;6.60;;
43664;SDS011;29263;48.172;11.484;2023-05-03T03:12:37;10.90;;;7.03;;
43664;SDS011;29263;48.172;11.484;2023-05-03T03:15:03;9.70;;;6.47;;
43664;SDS011;29263;48.172;11.484;2023-05-03T03:17:29;10.77;;;6.77;;
43664;SDS011;29263;48.172;11.484;2023-05-03T03:19:55;9.57;;;6.60;;
43664;SDS011;29263;48.172;11.484;2023-05-03T03:22:22;8.07;;;6.10;;
43664;SDS011;29263;48.172;11.484;2023-05-03T03:24:49;10.00;;;6.67;;
43664;SDS011;29263;48.172;11.484;2023-05-03T03:27:15;9.80;;;7.20;;
43664;SDS011;29263;48.172;11.484;2023-05-03T03:29:41;9.17;;;6.63;;
43664;SDS011;29263;48.172;11.484;2023-05-03T03:32:06;9.50;;;6.70;;
43664;SDS011;29263;48.172;11.484;2023-05-03T03:34:32;9.63;;;6.67;;
43664;SDS011;29263;48.172;11.484;2023-05-03T03:36:58;10.37;;;6.70;;
43664;SDS011;29263;48.172;11.484;2023-05-03T03:39:23;12.27;;;6.67;;
43664;SDS011;29263;48.172;11.484;2023-05-03T03:41:49;10.03;;;7.13;;
43664;SDS011;29263;48.172;11.484;2023-05-03T03:44:14;7.70;;;5.70;;
43664;SDS011;29263;48.172;11.484;2023-05-03T03:46:40;8.83;;;6.40;;
43664;SDS011;29263;48.172;11.484;2023-05-03T03:49:06;9.43;;;7.13;;
43664;SDS011;29263;48.172;11.484;2023-05-03T03:51:32;8.60;;;6.57;;
43664;SDS011;29263;48.172;11.484;2023-05-03T03:53:57;9.43;;;6.10;;
43664;SDS011;29263;48.172;11.484;2023-05-03T03:56:23;10.13;;;6.73;;
43664;SDS011;29263;48.172;11.484;2023-05-03T03:58:49;8.50;;;6.43;;
43664;SDS011;29263;48.172;11.484;2023-05-03T04:01:15;9.33;;;6.93;;
43664;SDS011;29263;48.172;11.484;2023-05-03T04:03:41;10.67;;;7.67;;
43664;SDS011;29263;48.172;11.484;2023-05-03T04:06:10;11.48;;;7.85;;
43664;SDS011;29263;48.172;11.484;2023-05-03T04:08:35;13.13;;;6.97;;
43664;SDS011;29263;48.172;11.484;2023-05-03T04:11:01;18.00;;;8.23;;
43664;SDS011;29263;48.172;11.484;2023-05-03T04:13:27;11.57;;;7.73;;
43664;SDS011;29263;48.172;11.484;2023-05-03T04:15:53;15.07;;;8.30;;
43664;SDS011;29263;48.172;11.484;2023-05-03T04:18:20;35.23;;;7.87;;
43664;SDS011;29263;48.172;11.484;2023-05-03T04:20:46;48.13;;;8.97;;
43664;SDS011;29263;48.172;11.484;2023-05-03T04:23:12;42.43;;;8.97;;
43664;SDS011;29263;48.172;11.484;2023-05-03T04:25:38;25.60;;;6.93;;
43664;SDS011;29263;48.172;11.484;2023-05-03T04:28:10;55.90;;;8.90;;
43664;SDS011;29263;48.172;11.484;2023-05-03T04:30:37;89.17;;;9.60;;
43664;SDS011;29263;48.172;11.484;2023-05-03T04:33:03;20.50;;;7.20;;
43664;SDS011;29263;48.172;11.484;2023-05-03T04:35:28;89.70;;;7.77;;
43664;SDS011;29263;48.172;11.484;2023-05-03T04:37:54;14.43;;;6.30;;
43664;SDS011;29263;48.172;11.484;2023-05-03T04:40:20;114.90;;;10.40;;
43664;SDS011;29263;48.172;11.484;2023-05-03T04:42:45;122.07;;;9.17;;
43664;SDS011;29263;48.172;11.484;2023-05-03T04:45:11;19.87;;;6.63;;
43664;SDS011;29263;48.172;11.484;2023-05-03T04:47:38;63.43;;;8.07;;
43664;SDS011;29263;48.172;11.484;2023-05-03T04:50:04;53.57;;;9.27;;
43664;SDS011;29263;48.172;11.484;2023-05-03T04:52:32;88.97;;;8.70;;
43664;SDS011;29263;48.172;11.484;2023-05-03T04:54:58;39.73;;;7.37;;
43664;SDS011;29263;48.172;11.484;2023-05-03T04:57:24;23.20;;;7.73;;
43664;SDS011;29263;48.172;11.484;2023-05-03T04:59:49;43.00;;;8.63;;
43664;SDS011;29263;48.172;11.484;2023-05-03T05:02:17;39.03;;;7.50;;
43664;SDS011;29263;48.172;11.484;2023-05-03T05:04:43;16.00;;;8.10;;
43664;SDS011;29263;48.172;11.484;2023-05-03T05:07:08;76.90;;;8.57;;
43664;SDS011;29263;48.172;11.484;2023-05-03T05:09:34;73.93;;;9.00;;
43664;SDS011;29263;48.172;11.484;2023-05-03T05:12:00;55.60;;;9.27;;
43664;SDS011;29263;48.172;11.484;2023-05-03T05:14:28;14.83;;;8.67;;
43664;SDS011;29263;48.172;11.484;2023-05-03T05:16:55;19.73;;;7.83;;
43664;SDS011;29263;48.172;11.484;2023-05-03T05:19:21;51.57;;;10.90;;
43664;SDS011;29263;48.172;11.484;2023-05-03T05:21:46;39.93;;;8.97;;
43664;SDS011;29263;48.172;11.484;2023-05-03T05:24:12;63.10;;;10.53;;
43664;SDS011;29263;48.172;11.484;2023-05-03T05:26:38;13.70;;;7.77;;
43664;SDS011;29263;48.172;11.484;2023-05-03T05:29:03;41.50;;;8.80;;
43664;SDS011;29263;48.172;11.484;2023-05-03T05:31:29;32.20;;;8.80;;
43664;SDS011;29263;48.172;11.484;2023-05-03T05:33:55;53.40;;;9.30;;
43664;SDS011;29263;48.172;11.484;2023-05-03T05:36:21;22.83;;;8.93;;
43664;SDS011;29263;48.172;11.484;2023-05-03T05:38:46;52.10;;;11.30;;
43664;SDS011;29263;48.172;11.484;2023-05-03T05:41:12;32.73;;;9.53;;
43664;SDS011;29263;48.172;11.484;2023-05-03T05:43:38;25.00;;;9.80;;
43664;SDS011;29263;48.172;11.484;2023-05-03T05:46:03;27.17;;;10.27;;
43664;SDS011;29263;48.172;11.484;2023-05-03T05:48:29;40.07;;;12.00;;
43664;SDS011;29263;48.172;11.484;2023-05-03T05:50:54;72.47;;;12.10;;
43664;SDS011;29263;48.172;11.484;2023-05-03T05:53:20;24.03;;;11.17;;
43664;SDS011;29263;48.172;11.484;2023-05-03T05:55:45;34.40;;;11.47;;
43664;SDS011;29263;48.172;11.484;2023-05-03T05:58:11;24.50;;;11.37;;
43664;SDS011;29263;48.172;11.484;2023-05-03T06:00:37;39.10;;;11.93;;
43664;SDS011;29263;48.172;11.484;2023-05-03T06:03:03;28.10;;;11.83;;
43664;SDS011;29263;48.172;11.484;2023-05-03T06:05:29;32.43;;;12.13;;
43664;SDS011;29263;48.172;11.484;2023-05-03T06:07:55;21.20;;;12.33;;
43664;SDS011;29263;48.172;11.484;2023-05-03T06:10:20;66.23;;;12.07;;
43664;SDS011;29263;48.172;11.484;2023-05-03T06:12:46;38.27;;;11.73;;
43664;SDS011;29263;48.172;11.484;2023-05-03T06:15:12;17.87;;;10.30;;
43664;SDS011;29263;48.172;11.484;2023-05-03T06:17:37;29.13;;;11.90;;
43664;SDS011;29263;48.172;11.484;2023-05-03T06:20:03;22.73;;;10.97;;
43664;SDS011;29263;48.172;11.484;2023-05-03T06:22:30;26.27;;;11.73;;
43664;SDS011;29263;48.172;11.484;2023-05-03T06:24:56;31.07;;;12.10;;
43664;SDS011;29263;48.172;11.484;2023-05-03T06:27:22;19.13;;;10.70;;
43664;SDS011;29263;48.172;11.484;2023-05-03T06:29:48;40.20;;;10.57;;
43664;SDS011;29263;48.172;11.484;2023-05-03T06:32:14;33.00;;;11.00;;
43664;SDS011;29263;48.172;11.484;2023-05-03T06:34:40;25.43;;;10.23;;
43664;SDS011;29263;48.172;11.484;2023-05-03T06:37:06;33.70;;;10.67;;
43664;SDS011;29263;48.172;11.484;2023-05-03T06:39:31;19.20;;;10.40;;
43664;SDS011;29263;48.172;11.484;2023-05-03T06:41:57;17.40;;;10.03;;
43664;SDS011;29263;48.172;11.484;2023-05-03T06:44:22;28.53;;;9.93;;
43664;SDS011;29263;48.172;11.484;2023-05-03T06:46:48;21.10;;;10.03;;
43664;SDS011;29263;48.172;11.484;2023-05-03T06:49:14;19.40;;;10.17;;
43664;SDS011;29263;48.172;11.484;2023-05-03T06:51:40;21.03;;;10.33;;
43664;SDS011;29263;48.172;11.484;2023-05-03T06:54:06;18.17;;;10.00;;
43664;SDS011;29263;48.172;11.484;2023-05-03T06:56:33;15.77;;;9.13;;
43664;SDS011;29263;48.172;11.484;2023-05-03T06:59:00;18.33;;;10.10;;
43664;SDS011;29263;48.172;11.484;2023-05-03T07:01:26;18.73;;;11.03;;
43664;SDS011;29263;48.172;11.484;2023-05-03T07:03:52;20.97;;;10.67;;
43664;SDS011;29263;48.172;11.484;2023-05-03T07:06:18;18.93;;;10.97;;
43664;SDS011;29263;48.172;11.484;2023-05-03T07:08:43;19.60;;;11.43;;
43664;SDS011;29263;48.172;11.484;2023-05-03T07:11:09;18.33;;;11.00;;
43664;SDS011;29263;48.172;11.484;2023-05-03T07:13:35;17.30;;;11.40;;
43664;SDS011;29263;48.172;11.484;2023-05-03T07:16:00;22.50;;;12.43;;
43664;SDS011;29263;48.172;11.484;2023-05-03T07:18:26;21.87;;;11.87;;
43664;SDS011;29263;48.172;11.484;2023-05-03T07:20:52;20.00;;;11.87;;
43664;SDS011;29263;48.172;11.484;2023-05-03T07:23:18;20.73;;;12.07;;
43664;SDS011;29263;48.172;11.484;2023-05-03T07:25:43;20.27;;;11.67;;
43664;SDS011;29263;48.172;11.484;2023-05-03T07:28:12;18.20;;;10.68;;
43664;SDS011;29263;48.172;11.484;2023-05-03T07:30:38;21.30;;;12.00;;
43664;SDS011;29263;48.172;11.484;2023-05-03T07:33:03;21.03;;;11.40;;
43664;SDS011;29263;48.172;11.484;2023-05-03T07:35:29;24.40;;;12.57;;
43664;SDS011;29263;48.172;11.484;2023-05-03T07:37:56;25.13;;;12.73;;
43664;SDS011;29263;48.172;11.484;2023-05-03T07:40:22;24.07;;;12.97;;
43664;SDS011;29263;48.172;11.484;2023-05-03T07:42:48;26.17;;;13.97;;
43664;SDS011;29263;48.172;11.484;2023-05-03T07:45:14;25.37;;;12.97;;
43664;SDS011;29263;48.172;11.484;2023-05-03T07:47:39;28.10;;;14.30;;
43664;SDS011;29263;48.172;11.484;2023-05-03T07:50:05;28.27;;;14.00;;
43664;SDS011;29263;48.172;11.484;2023-05-03T07:52:37;23.67;;;13.27;;
43664;SDS011;29263;48.172;11.484;2023-05-03T07:55:04;24.83;;;14.07;;
43664;SDS011;29263;48.172;11.484;2023-05-03T07:57:31;25.70;;;14.83;;
43664;SDS011;29263;48.172;11.484;2023-05-03T07:59:56;26.10;;;14.13;;
43664;SDS011;29263;48.172;11.484;2023-05-03T08:02:22;24.53;;;13.37;;
43664;SDS011;29263;48.172;11.484;2023-05-03T08:04:48;27.17;;;14.70;;
43664;SDS011;29263;48.172;11.484;2023-05-03T08:07:13;29.53;;;14.63;;
43664;SDS011;29263;48.172;11.484;2023-05-03T08:09:39;25.73;;;14.47;;
43664;SDS011;29263;48.172;11.484;2023-05-03T08:12:05;26.87;;;14.30;;
43664;SDS011;29263;48.172;11.484;2023-05-03T08:14:31;33.43;;;16.53;;
43664;SDS011;29263;48.172;11.484;2023-05-03T08:16:57;30.13;;;15.93;;
43664;SDS011;29263;48.172;11.484;2023-05-03T08:19:24;29.33;;;16.60;;
43664;SDS011;29263;48.172;11.484;2023-05-03T08:21:49;27.37;;;15.83;;
43664;SDS011;29263;48.172;11.484;2023-05-03T08:24:16;26.87;;;15.80;;
43664;SDS011;29263;48.172;11.484;2023-05-03T08:26:42;30.37;;;16.97;;
43664;SDS011;29263;48.172;11.484;2023-05-03T08:29:09;27.33;;;16.03;;
43664;SDS011;29263;48.172;11.484;2023-05-03T08:31:35;27.00;;;16.53;;
43664;SDS011;29263;48.172;11.484;2023-05-03T08:34:00;29.53;;;16.97;;
43664;SDS011;29263;48.172;11.484;2023-05-03T08:36:27;29.63;;;16.40;;
43664;SDS011;29263;48.172;11.484;2023-05-03T08:38:53;33.37;;;17.80;;
43664;SDS011;29263;48.172;11.484;2023-05-03T08:41:29;29.50;;;16.30;;
43664;SDS011;29263;48.172;11.484;2023-05-03T08:43:55;35.10;;;17.93;;
43664;SDS011;29263;48.172;11.484;2023-05-03T08:46:22;30.87;;;17.80;;
43664;SDS011;29263;48.172;11.484;2023-05-03T08:48:50;31.27;;;17.00;;
43664;SDS011;29263;48.172;11.484;2023-05-03T08:51:17;30.70;;;16.90;;
43664;SDS011;29263;48.172;11.484;2023-05-03T08:53:43;33.03;;;18.80;;
43664;SDS011;29263;48.172;11.484;2023-05-03T08:56:10;26.70;;;17.20;;
43664;SDS011;29263;48.172;11.484;2023-05-03T08:58:40;26.60;;;17.40;;
43664;SDS011;29263;48.172;11.484;2023-05-03T09:01:06;24.67;;;16.48;;
43664;SDS011;29263;48.172;11.484;2023-05-03T09:03:33;21.58;;;14.95;;
43664;SDS011;29263;48.172;11.484;2023-05-03T09:05:59;22.92;;;15.43;;
43664;SDS011;29263;48.172;11.484;2023-05-03T09:08:28;21.92;;;14.75;;
43664;SDS011;29263;48.172;11.484;2023-05-03T09:10:55;26.35;;;15.82;;
43664;SDS011;29263;48.172;11.484;2023-05-03T09:13:28;26.33;;;16.67;;
43664;SDS011;29263;48.172;11.484;2023-05-03T09:15:56;25.45;;;16.23;;
43664;SDS011;29263;48.172;11.484;2023-05-03T09:18:22;29.63;;;17.90;;
43664;SDS011;29263;48.172;11.484;2023-05-03T09:20:49;24.83;;;16.35;;
43664;SDS011;29263;48.172;11.484;2023-05-03T09:23:19;24.70;;;16.35;;
43664;SDS011;29263;48.172;11.484;2023-05-03T09:25:55;26.33;;;16.33;;
43664;SDS011;29263;48.172;11.484;2023-05-03T09:28:21;23.67;;;15.43;;
43664;SDS011;29263;48.172;11.484;2023-05-03T09:30:47;24.58;;;16.20;;
43664;SDS011;29263;48.172;11.484;2023-05-03T09:33:14;25.85;;;15.57;;
43664;SDS011;29263;48.172;11.484;2023-05-03T09:36:02;25.52;;;15.68;;
43664;SDS011;29263;48.172;11.484;2023-05-03T09:38:32;24.08;;;16.05;;
43664;SDS011;29263;48.172;11.484;2023-05-03T09:40:59;27.75;;;15.20;;
43664;SDS011;29263;48.172;11.484;2023-05-03T09:43:25;23.88;;;14.65;;
43664;SDS011;29263;48.172;11.484;2023-05-03T09:45:51;30.38;;;17.75;;
43664;SDS011;29263;48.172;11.484;2023-05-03T09:48:17;25.65;;;16.15;;
43664;SDS011;29263;48.172;11.484;2023-05-03T09:50:47;30.13;;;17.83;;
43664;SDS011;29263;48.172;11.484;2023-05-03T09:53:13;30.58;;;15.70;;
43664;SDS011;29263;48.172;11.484;2023-05-03T09:55:43;28.00;;;16.65;;
43664;SDS011;29263;48.172;11.484;2023-05-03T09:58:09;27.67;;;17.00;;
43664;SDS011;29263;48.172;11.484;2023-05-03T10:00:36;30.58;;;17.42;;
43664;SDS011;29263;48.172;11.484;2023-05-03T10:03:09;27.45;;;17.00;;
43664;SDS011;29263;48.172;11.484;2023-05-03T10:05:42;23.85;;;15.60;;
43664;SDS011;29263;48.172;11.484;2023-05-03T10:08:12;26.50;;;15.77;;
43664;SDS011;29263;48.172;11.484;2023-05-03T10:10:48;23.92;;;16.35;;
43664;SDS011;29263;48.172;11.484;2023-05-03T10:13:19;25.25;;;15.38;;
43664;SDS011;29263;48.172;11.484;2023-05-03T10:15:52;27.02;;;17.35;;
43664;SDS011;29263;48.172;11.484;2023-05-03T10:18:22;24.02;;;17.02;;
43664;SDS011;29263;48.172;11.484;2023-05-03T10:20:56;21.73;;;15.55;;
43664;SDS011;29263;48.172;11.484;2023-05-03T10:23:31;23.42;;;16.55;;
43664;SDS011;29263;48.172;11.484;2023-05-03T10:26:17;22.23;;;15.18;;
43664;SDS011;29263;48.172;11.484;2023-05-03T10:28:42;21.55;;;15.82;;
43664;SDS011;29263;48.172;11.484;2023-05-03T10:34:24;20.73;;;14.20;;
43664;SDS011;29263;48.172;11.484;2023-05-03T10:36:54;20.77;;;14.20;;
43664;SDS011;29263;48.172;11.484;2023-05-03T10:39:20;20.48;;;14.88;;
43664;SDS011;29263;48.172;11.484;2023-05-03T10:41:56;20.30;;;14.52;;
43664;SDS011;29263;48.172;11.484;2023-05-03T10:44:39;17.85;;;12.80;;
43664;SDS011;29263;48.172;11.484;2023-05-03T10:47:15;19.73;;;13.68;;
43664;SDS011;29263;48.172;11.484;2023-05-03T10:49:42;22.15;;;14.52;;
43664;SDS011;29263;48.172;11.484;2023-05-03T11:01:53;23.02;;;16.05;;
43664;SDS011;29263;48.172;11.484;2023-05-03T11:04:22;23.55;;;16.30;;
43664;SDS011;29263;48.172;11.484;2023-05-03T11:09:44;23.02;;;15.38;;
43664;SDS011;29263;48.172;11.484;2023-05-03T11:12:10;24.60;;;16.45;;
43664;SDS011;29263;48.172;11.484;2023-05-03T11:14:36;20.40;;;14.60;;
43664;SDS011;29263;48.172;11.484;2023-05-03T11:17:03;20.25;;;14.13;;
43664;SDS011;29263;48.172;11.484;2023-05-03T11:19:53;18.83;;;14.13;;
43664;SDS011;29263;48.172;11.484;2023-05-03T11:33:08;21.10;;;16.40;;
43664;SDS011;29263;48.172;11.484;2023-05-03T11:43:05;17.70;;;13.88;;
43664;SDS011;29263;48.172;11.484;2023-05-03T11:49:25;17.55;;;14.02;;
43664;SDS011;29263;48.172;11.484;2023-05-03T12:05:34;15.35;;;11.40;;
43664;SDS011;29263;48.172;11.484;2023-05-03T12:08:00;16.52;;;11.23;;
43664;SDS011;29263;48.172;11.484;2023-05-03T12:10:41;13.40;;;10.77;;
43664;SDS011;29263;48.172;11.484;2023-05-03T12:13:58;14.00;;;10.15;;
43664;SDS011;29263;48.172;11.484;2023-05-03T12:16:26;15.20;;;9.63;;
43664;SDS011;29263;48.172;11.484;2023-05-03T12:18:53;10.75;;;8.50;;
43664;SDS011;29263;48.172;11.484;2023-05-03T12:21:45;10.60;;;8.10;;
43664;SDS011;29263;48.172;11.484;2023-05-03T12:24:12;10.90;;;8.63;;
43664;SDS011;29263;48.172;11.484;2023-05-03T12:26:41;12.45;;;8.45;;
43664;SDS011;29263;48.172;11.484;2023-05-03T12:29:10;10.07;;;8.20;;
43664;SDS011;29263;48.172;11.484;2023-05-03T12:31:36;11.98;;;8.57;;
43664;SDS011;29263;48.172;11.484;2023-05-03T12:34:02;9.05;;;7.68;;
43664;SDS011;29263;48.172;11.484;2023-05-03T12:36:29;7.72;;;6.93;;
43664;SDS011;29263;48.172;11.484;2023-05-03T12:38:58;9.88;;;7.30;;
43664;SDS011;29263;48.172;11.484;2023-05-03T12:41:24;10.18;;;8.00;;
43664;SDS011;29263;48.172;11.484;2023-05-03T12:43:53;17.98;;;10.90;;
43664;SDS011;29263;48.172;11.484;2023-05-03T12:46:20;13.70;;;9.35;;
43664;SDS011;29263;48.172;11.484;2023-05-03T12:48:47;10.35;;;6.53;;
43664;SDS011;29263;48.172;11.484;2023-05-03T12:51:13;6.75;;;4.70;;
43664;SDS011;29263;48.172;11.484;2023-05-03T12:53:39;6.78;;;4.80;;
43664;SDS011;29263;48.172;11.484;2023-05-03T12:56:05;6.80;;;5.80;;
43664;SDS011;29263;48.172;11.484;2023-05-03T12:58:31;6.82;;;5.07;;
43664;SDS011;29263;48.172;11.484;2023-05-03T13:00:56;8.40;;;5.97;;
43664;SDS011;29263;48.172;11.484;2023-05-03T13:03:23;8.15;;;5.90;;
43664;SDS011;29263;48.172;11.484;2023-05-03T13:05:49;6.43;;;5.35;;
43664;SDS011;29263;48.172;11.484;2023-05-03T13:08:15;7.20;;;5.97;;
43664;SDS011;29263;48.172;11.484;2023-05-03T13:10:40;8.50;;;5.70;;
43664;SDS011;29263;48.172;11.484;2023-05-03T13:13:06;5.95;;;4.72;;
43664;SDS011;29263;48.172;11.484;2023-05-03T13:15:33;6.15;;;5.13;;
43664;SDS011;29263;48.172;11.484;2023-05-03T13:18:00;8.05;;;6.07;;
43664;SDS011;29263;48.172;11.484;2023-05-03T13:20:28;8.20;;;6.32;;
43664;SDS011;29263;48.172;11.484;2023-05-03T13:22:57;8.85;;;6.10;;
43664;SDS011;29263;48.172;11.484;2023-05-03T13:25:23;8.77;;;6.88;;
43664;SDS011;29263;48.172;11.484;2023-05-03T13:27:50;7.55;;;6.00;;
43664;SDS011;29263;48.172;11.484;2023-05-03T13:30:18;7.57;;;6.43;;
43664;SDS011;29263;48.172;11.484;2023-05-03T13:32:47;6.38;;;5.20;;
43664;SDS011;29263;48.172;11.484;2023-05-03T13:35:14;8.98;;;6.00;;
43664;SDS011;29263;48.172;11.484;2023-05-03T13:37:41;8.52;;;6.13;;
43664;SDS011;29263;48.172;11.484;2023-05-03T13:40:06;8.38;;;5.82;;
43664;SDS011;29263;48.172;11.484;2023-05-03T13:42:33;7.70;;;4.97;;
43664;SDS011;29263;48.172;11.484;2023-05-03T13:44:59;6.90;;;4.80;;
43664;SDS011;29263;48.172;11.484;2023-05-03T13:47:25;6.60;;;4.45;;
43664;SDS011;29263;48.172;11.484;2023-05-03T13:49:54;9.43;;;5.53;;
43664;SDS011;29263;48.172;11.484;2023-05-03T13:52:20;7.20;;;4.95;;
43664;SDS011;29263;48.172;11.484;2023-05-03T13:54:46;5.72;;;5.10;;
43664;SDS011;29263;48.172;11.484;2023-05-03T13:57:12;6.32;;;5.05;;
43664;SDS011;29263;48.172;11.484;2023-05-03T13:59:37;6.53;;;4.90;;
43664;SDS011;29263;48.172;11.484;2023-05-03T14:02:03;6.55;;;5.53;;
43664;SDS011;29263;48.172;11.484;2023-05-03T14:04:28;6.28;;;4.80;;
43664;SDS011;29263;48.172;11.484;2023-05-03T14:06:55;6.72;;;4.85;;
43664;SDS011;29263;48.172;11.484;2023-05-03T14:09:22;6.03;;;4.28;;
43664;SDS011;29263;48.172;11.484;2023-05-03T14:11:48;5.20;;;4.40;;
43664;SDS011;29263;48.172;11.484;2023-05-03T14:14:13;4.20;;;3.80;;
43664;SDS011;29263;48.172;11.484;2023-05-03T14:16:39;5.10;;;4.60;;
43664;SDS011;29263;48.172;11.484;2023-05-03T14:19:05;4.03;;;3.63;;
43664;SDS011;29263;48.172;11.484;2023-05-03T14:21:31;3.78;;;2.65;;
43664;SDS011;29263;48.172;11.484;2023-05-03T14:23:57;3.80;;;2.50;;
43664;SDS011;29263;48.172;11.484;2023-05-03T14:26:22;5.75;;;3.00;;
43664;SDS011;29263;48.172;11.484;2023-05-03T14:28:48;5.25;;;3.38;;
43664;SDS011;29263;48.172;11.484;2023-05-03T14:31:14;3.08;;;2.72;;
43664;SDS011;29263;48.172;11.484;2023-05-03T14:33:40;2.65;;;2.22;;
43664;SDS011;29263;48.172;11.484;2023-05-03T14:36:06;2.33;;;2.13;;
43664;SDS011;29263;48.172;11.484;2023-05-03T14:38:33;2.95;;;2.63;;
43664;SDS011;29263;48.172;11.484;2023-05-03T14:40:59;2.40;;;2.20;;
43664;SDS011;29263;48.172;11.484;2023-05-03T14:43:24;2.58;;;2.10;;
43664;SDS011;29263;48.172;11.484;2023-05-03T14:45:50;3.17;;;2.28;;
43664;SDS011;29263;48.172;11.484;2023-05-03T14:48:16;2.40;;;2.20;;
43664;SDS011;29263;48.172;11.484;2023-05-03T14:50:48;2.50;;;2.30;;
43664;SDS011;29263;48.172;11.484;2023-05-03T14:53:14;2.08;;;1.88;;
43664;SDS011;29263;48.172;11.484;2023-05-03T14:55:40;4.07;;;2.00;;
43664;SDS011;29263;48.172;11.484;2023-05-03T14:58:06;3.55;;;2.13;;
43664;SDS011;29263;48.172;11.484;2023-05-03T15:00:35;2.45;;;2.22;;
43664;SDS011;29263;48.172;11.484;2023-05-03T15:03:01;2.67;;;2.00;;
43664;SDS011;29263;48.172;11.484;2023-05-03T15:05:27;1.80;;;1.70;;
43664;SDS011;29263;48.172;11.484;2023-05-03T15:07:53;2.10;;;1.88;;
43664;SDS011;29263;48.172;11.484;2023-05-03T15:10:19;1.80;;;1.50;;
43664;SDS011;29263;48.172;11.484;2023-05-03T15:12:45;4.20;;;2.40;;
43664;SDS011;29263;48.172;11.484;2023-05-03T15:15:11;3.33;;;2.20;;
43664;SDS011;29263;48.172;11.484;2023-05-03T15:17:37;2.50;;;2.30;;